Veradale, WA (99037)

3:39 PM PST on November 26, 2014 (GMT -0800)
Morningside | Change Station
CLOSE
Current Station
Personal Weather Station
Location: Greenacres, WA
Elevation: 2337 ft
Nearby Weather Stations
Active Advisory: Dense Fog Advisory Active Notice: Record Report, Local Storm Report

Elev 2337 ft 47.63 °N, 117.17 °W | Updated 2 seconds ago

Overcast
Overcast
44.4 °F
Feels Like 44 °F
N
0.0
Wind Variable Wind from NW
Gusts 0.0 mph

Today
High -- | Low -- °F
--% Chance of Precip.
Yesterday
High -- | Low -- °F
Precip. -- in
7:09 AM 4:02 PM
Waxing Crescent, 23% visible
Pressure 30.12 in
Visibility 6.0 miles
Clouds Scattered Clouds 400 ft
Overcast 1200 ft
Windchill 44 °F
Dew Point 22 °F
Humidity 41%
Rainfall 0.00 in
Snow Depth Not available.
UV 0 out of 12
Pollen .10 out of 12
Air Quality Not available.
Flu Activity Not available.
SPECI KSFF 262325Z 00000KT 6SM BR SCT004 OVC012 04/02 A3012 RMK AO2 T00390022

More Conditions Fewer Conditions

Pressure 30.12 in
Visibility 6.0 miles
Clouds Scattered Clouds 400 ft
Overcast 1200 ft
Windchill 44 °F
Dew Point 22 °F
Humidity 41%
Rainfall 0.00 in
Snow Depth Not available.
UV 0 out of 12
Pollen .10 out of 12
Air Quality Not available.
Flu Activity Not available.
SPECI KSFF 262325Z 00000KT 6SM BR SCT004 OVC012 04/02 A3012 RMK AO2 T00390022

More Conditions Fewer Conditions

10-Day Weather Forecast

Almanac

Astronomy

Nov. 26, 2014 Rise Set
Actual Time
Civil Twilight
Nautical Twilight
Astronomical Twilight
Moon
Length of Visible Light
Length of Day
Tomorrow will be .
, % of the Moon is Illuminated

Today's Extremes

State Highs State Lows

Community

WunderPhotos

Upload Photos

1,773,919 photos uploaded!

WunderBlogs® & News

Nearby

Air Quality

  Air Quality AQ Index Pollutant
Not available.

Snow Depth

Station Depth Elevation

Earthquake Activity

City Distance Mag. Time & Date
Minimum magnitude displayed is 2.5.

Coastal Water Temperatures

Place Temperature

Nearby Weather Stations